Flight Track Log - Related Links

Times and Time Zones

All times are in EDT time to prevent confusion due to time zone crossing. See the WIG7306 flight status page for this flight to view local times or setup timezone preferences in your user account.

Time Position Orientation Groundspeed Altitude Reporting Facility
EDT Latitude Longitude Course Direction KTS MPH feet Rate Location/Type
Wed 10:38:10 PM 42.7458 -73.8100 210° Southwest 102 117 1,000  Level Boston Center
Wed 10:38:22 PM 42.7381 -73.8161 210° Southwest 119 137 1,300 1,479 Climbing Boston Center
Wed 10:39:23 PM 42.7139 -73.8431 219° Southwest 106 122 2,800 1,302 Climbing Boston Center
Wed 10:40:08 PM 42.6975 -73.8553 209° Southwest 108 124 3,600 1,200 Climbing Boston Center
Wed 10:40:23 PM 42.6867 -73.8628 207° Southwest 117 135 4,000 1,180 Climbing Boston Center
Wed 10:41:09 PM 42.6672 -73.8769 208° Southwest 117 135 4,800 1,180 Climbing Boston Center
Wed 10:41:24 PM 42.6567 -73.8847 208° Southwest 125 144 5,200 1,180 Climbing Boston Center
Wed 10:42:10 PM 42.6311 -73.9017 206° Southwest 132 152 6,000 1,189 Climbing Boston Center
Wed 10:43:10 PM 42.5933 -73.9278 207° Southwest 145 167 7,300 1,050 Climbing Boston Center
Wed 10:44:10 PM 42.5553 -73.9558 209° Southwest 153 176 8,100 344 Climbing Boston Center
Wed 10:45:12 PM 42.5078 -73.9889 207° Southwest 189 217 8,000 -49 Descending Boston Center
Wed 10:46:13 PM 42.4617 -74.0219 208° Southwest 188 216 8,000  Level Boston Center
Wed 10:47:14 PM 42.4158 -74.0556 208° Southwest 188 216 8,000 101 Level Boston Center
Wed 10:48:12 PM 42.3681 -74.0883 207° Southwest 182 209 8,200 50 Climbing Boston Center
Wed 10:49:13 PM 42.3281 -74.1158 207° Southwest 178 205 8,100 -48 Descending Boston Center
Wed 10:50:16 PM 42.2825 -74.1469 207° Southwest 178 205 8,100 48 Level Boston Center
Wed 10:51:17 PM 42.2322 -74.1711 200° South 179 206 8,200  Climbing Boston Center
Wed 10:52:16 PM 42.1839 -74.1961 201° Southwest 182 209 8,100 -50 Descending Boston Center
Wed 10:53:16 PM 42.1361 -74.2211 201° Southwest 184 212 8,100 -49 Level Boston Center
Wed 10:54:19 PM 42.0869 -74.2475 202° Southwest 188 216 8,000  Descending Boston Center
Wed 10:55:19 PM 42.0422 -74.2725 203° Southwest 176 203 8,100  Climbing Boston Center
Wed 10:56:17 PM 41.9928 -74.2975 201° Southwest 188 216 8,000 -49 Descending Boston Center
Wed 10:57:21 PM 41.9419 -74.3206 199° South 191 220 8,000  Level Boston Center
Wed 10:58:21 PM 41.8861 -74.3500 201° Southwest 198 228 8,000 50 Level Boston Center
Wed 10:59:21 PM 41.8397 -74.3733 201° Southwest 180 207 8,100 50 Climbing Boston Center
Wed 11:00:21 PM 41.7917 -74.3961 199° South 180 207 8,100 -50 Level Boston Center
Wed 11:01:21 PM 41.7447 -74.4208 201° Southwest 181 208 8,000  Descending Boston Center
Wed 11:02:22 PM 41.6983 -74.4439 200° South 180 207 8,100  Climbing Boston Center
Wed 11:03:23 PM 41.6506 -74.4683 201° Southwest 181 208 8,000 -146 Descending Boston Center
Wed 11:04:25 PM 41.5975 -74.4967 202° Southwest 187 215 7,800 -450 Descending Boston Center
Wed 11:05:23 PM 41.5458 -74.5242 202° Southwest 196 226 7,100 -694 Descending Boston Center
Wed 11:06:26 PM 41.4928 -74.5503 200° South 201 231 6,400 -541 Descending Boston Center
Wed 11:07:25 PM 41.4406 -74.5742 199° South 201 231 6,000 -198 Descending Boston Center
Wed 11:08:27 PM 41.3942 -74.5981 201° Southwest 184 212 6,000  Level Boston Center
Wed 11:09:28 PM 41.3456 -74.5972 179° South 185 213 6,000 -295 Level Boston Center
Wed 11:10:29 PM 41.2911 -74.5786 166° South 201 231 5,400 -590 Descending Boston Center
Wed 11:11:30 PM 41.2292 -74.5567 165° South 209 241 4,800 -650 Descending Boston Center
Wed 11:12:29 PM 41.1744 -74.5358 164° South 208 239 4,100 -650 Descending Boston Center
Wed 11:13:30 PM 41.1233 -74.5161 164° South 195 224 3,500 -488 Descending Boston Center
Wed 11:14:32 PM 41.0708 -74.4953 163° South 196 226 3,100 -188 Descending Boston Center
Wed 11:15:38 PM 41.0167 -74.4667 158° South 188 216 3,100 48 Level New York TRACON
Wed 11:16:38 PM 40.9667 -74.4500 166° South 177 204 3,200  Climbing New York TRACON
Wed 11:17:38 PM 40.9167 -74.4333 166° South 185 213 3,100 -50 Descending New York TRACON
Wed 11:18:38 PM 40.8833 -74.4000 143° Southeast 186 214 3,100 -450 Level New York TRACON
Wed 11:19:38 PM 40.8333 -74.3500 143° Southeast 185 213 2,200 -500 Descending New York TRACON
Wed 11:20:38 PM 40.8000 -74.3167 143° Southeast 172 198 2,100 -50 Descending New York TRACON
Wed 11:21:38 PM 40.7500 -74.2833 153° Southeast 171 197 2,100 -50 Level New York TRACON
Wed 11:22:38 PM 40.7167 -74.2667 159° South 162 186 2,000 -50 Descending New York TRACON
Wed 11:23:38 PM 40.6833 -74.2167 131° Southeast 145 167 2,000  Level New York TRACON
Wed 11:24:38 PM 40.6833 -74.1667 90° East 156 180 2,000  Level New York TRACON
Wed 11:25:38 PM 40.6667 -74.1167 114° Southeast 140 161 2,000 -500 Level New York TRACON
Wed 11:26:38 PM 40.6833 -74.1167 360° North 124 143 1,000 -1,000 Descending New York TRACON

Login

Don't have an account? Register now (free) for customized features, flight alerts, and more!